createdAt,value
2023-01-04T03:44:09.235Z,7.70
2023-01-04T03:47:01.481Z,7.60
2023-01-04T03:49:48.315Z,7.60
2023-01-04T03:52:18.687Z,7.60
2023-01-04T03:54:49.619Z,7.70
2023-01-04T03:57:19.121Z,7.80
2023-01-04T03:59:50.972Z,7.90
2023-01-04T04:02:24.687Z,7.90
2023-01-04T04:05:10.663Z,7.90
2023-01-04T04:07:56.959Z,8.00
2023-01-04T04:10:25.488Z,8.00
2023-01-04T04:12:54.570Z,8.00
2023-01-04T04:15:23.133Z,8.00
2023-01-04T04:17:51.689Z,8.10
2023-01-04T04:20:20.254Z,8.10
2023-01-04T04:22:48.837Z,8.20
2023-01-04T04:25:17.537Z,8.30
2023-01-04T04:27:46.062Z,8.20
2023-01-04T04:30:14.755Z,8.20
2023-01-04T04:32:43.546Z,8.20
2023-01-04T04:35:12.052Z,8.10
2023-01-04T04:37:40.909Z,8.20
2023-01-04T04:40:11.750Z,8.20
2023-01-04T04:42:40.651Z,8.20
2023-01-04T04:45:09.767Z,7.90
2023-01-04T04:47:38.302Z,7.80
2023-01-04T09:46:27.604Z,8.90
2023-01-04T09:48:59.300Z,9.80
2023-01-04T09:51:31.051Z,9.80
2023-01-04T09:54:02.652Z,9.80
2023-01-04T09:56:34.399Z,9.80
2023-01-04T09:59:05.728Z,9.80
2023-01-04T10:01:46.367Z,9.80
2023-01-04T10:04:38.809Z,9.90
2023-01-04T10:07:08.899Z,9.90
2023-01-04T10:09:38.745Z,9.90
2023-01-04T10:12:25.390Z,9.90
2023-01-04T10:15:02.898Z,9.90
2023-01-04T10:19:37.069Z,10.00
2023-01-04T10:23:55.084Z,10.00
2023-01-04T10:26:29.940Z,10.00
2023-01-04T10:29:10.053Z,9.90
2023-01-04T10:31:50.993Z,10.00
2023-01-04T10:34:28.907Z,10.00
2023-01-04T10:37:13.639Z,10.10
2023-01-04T10:39:42.803Z,10.10
2023-01-04T11:47:24.233Z,10.20
2023-01-04T11:49:52.941Z,10.70
2023-01-04T11:52:33.263Z,10.70
2023-01-04T11:55:26.129Z,10.70
2023-01-04T11:58:17.189Z,10.80
2023-01-04T12:00:57.013Z,10.80
2023-01-04T12:03:32.213Z,10.90
2023-01-04T12:06:00.816Z,10.90
2023-01-04T12:08:34.644Z,10.80
2023-01-04T12:11:05.853Z,10.90
2023-01-04T12:13:35.480Z,10.90
2023-01-04T12:16:13.340Z,10.90
2023-01-04T12:18:45.074Z,10.90
2023-01-04T12:21:19.447Z,10.90
2023-01-04T12:23:48.825Z,10.90
2023-01-04T12:26:18.479Z,10.90
2023-01-04T12:28:50.208Z,10.90
2023-01-04T12:31:22.574Z,10.90
2023-01-04T12:34:03.165Z,10.90
2023-01-04T12:36:44.013Z,10.90
2023-01-04T12:39:19.425Z,11.00
2023-01-04T12:42:01.289Z,11.00
2023-01-04T12:47:38.239Z,11.00
2023-01-04T12:50:15.367Z,11.00
2023-01-04T12:55:42.009Z,11.00
2023-01-04T12:58:42.283Z,11.10
2023-01-04T13:01:05.003Z,11.10
2023-01-04T13:03:36.706Z,11.20
2023-01-04T13:06:07.633Z,11.10
2023-01-04T13:08:45.623Z,11.20
2023-01-04T13:11:36.815Z,11.20
2023-01-04T13:14:11.072Z,11.30
2023-01-04T13:17:00.344Z,11.20
2023-01-04T13:19:29.244Z,11.20
2023-01-04T13:22:00.572Z,11.30
2023-01-04T13:24:32.108Z,11.30
2023-01-04T13:27:15.888Z,11.30
2023-01-04T13:29:44.996Z,11.40
2023-01-04T13:40:15.377Z,11.50
2023-01-04T13:42:47.227Z,11.40
2023-01-04T13:47:48.566Z,11.40
2023-01-04T14:38:43.670Z,11.80
2023-01-04T14:43:49.376Z,11.80
2023-01-04T14:46:18.010Z,11.70
2023-01-04T14:48:46.676Z,11.70
2023-01-04T14:51:18.716Z,11.70
2023-01-04T14:53:47.858Z,11.70
2023-01-04T14:56:18.057Z,11.60
2023-01-04T14:58:46.949Z,11.60
2023-01-04T15:01:15.728Z,10.80
2023-01-04T15:56:09.403Z,11.40
2023-01-04T15:58:39.591Z,11.30
2023-01-04T16:03:38.477Z,11.30
2023-01-04T16:06:14.022Z,11.40
2023-01-04T16:13:41.035Z,11.40
2023-01-04T16:16:10.364Z,11.40
2023-01-04T16:18:39.893Z,11.30
2023-01-04T16:21:11.211Z,11.30
2023-01-04T16:23:39.896Z,11.30
2023-01-04T16:31:11.026Z,11.30
2023-01-04T16:33:39.543Z,11.40
2023-01-04T16:36:11.227Z,11.30
2023-01-04T16:38:41.927Z,11.30
2023-01-04T16:41:13.501Z,11.30
2023-01-04T16:43:50.767Z,11.30
2023-01-04T16:46:29.601Z,11.30
2023-01-04T16:49:00.789Z,11.40
2023-01-04T16:51:32.481Z,11.40
2023-01-04T16:54:04.177Z,11.40
2023-01-04T16:56:34.817Z,11.40
2023-01-04T16:59:04.275Z,11.40
2023-01-04T17:01:34.998Z,11.50
2023-01-04T17:04:10.611Z,11.40
2023-01-04T17:06:45.114Z,11.40
2023-01-04T17:09:19.817Z,11.50
2023-01-04T17:16:57.989Z,12.40
2023-01-04T17:39:17.252Z,10.90
2023-01-04T18:39:01.219Z,11.30
2023-01-04T18:41:30.583Z,11.30
2023-01-04T18:44:22.644Z,11.30
2023-01-04T18:46:30.062Z,11.20
2023-01-04T18:49:03.037Z,11.20
2023-01-04T18:51:31.839Z,11.20
2023-01-04T23:22:34.419Z,10.70
2023-01-04T23:25:03.045Z,10.60
2023-01-04T23:27:31.626Z,10.60
2023-01-04T23:30:00.216Z,10.60
2023-01-04T23:32:28.773Z,10.60
2023-01-04T23:34:57.332Z,10.60
2023-01-04T23:37:25.865Z,10.60
2023-01-04T23:39:54.350Z,10.60
2023-01-04T23:42:22.904Z,10.60
2023-01-04T23:44:51.434Z,10.60
2023-01-04T23:47:19.942Z,10.60
2023-01-04T23:49:48.419Z,10.60
2023-01-04T23:52:17.026Z,10.60
2023-01-04T23:54:45.541Z,10.50
2023-01-04T23:57:14.096Z,10.50
2023-01-04T23:59:42.633Z,10.50
